Kezdőlap
METAR-TAF:

METAR-TAF

Repülőterek :

Caracas, Venezuela

földrajzi szélesség: 10-36N, földrajzi hosszúság: 066-59W, magasság: 43 m

Jelenlegi meteorológiai megfigyelések

A jelentés 18 perccel ezelõtt készült, 16:00 UTC
Hőmérséklet 30°C
Páratartalom 59%
Légköri nyomás 1015 hPa
Látótávolság 10 km, vagy több
Szórványos felhőzet 1600 lábon

METAR: SVMI 221600Z /////KT 9999 SCT016 30/21 Q1015

Idő: 12:18 (16:18 UTC)

Előrejelzés

A jelentés 30 órával és 18 perccel ezelõtt készült, 10:00 UTC
Az előrejelzés 21-én 12 óra UTC és 22-én 12 óra UTC között érvényes
Keleti szél 10 kt
Látótávolság 10 km, vagy több
Szórványos felhőzet 1600 lábon
21-én 12 óra UTC és 21-én 16 óra UTC között fokozatosan kialakuló
Észak-északkeleti szél 10 kt

TAF: SVMI 211000Z 2112/2212 09010KT 9999 SCT016 TX33/19Z TN24/09Z BECMG 2112/2116 02010KT

Meteorológiai megfigyelések és előrejelzések több, mint 4000 repülőtéren (METAR és TAF jelentéseket).

A térképen piros és sárga pontok jelzik az elérhető meteorológiai állomásokat.

Mozgassa az egeret a pont fölött, hogy megjelenjen az állomás neve.

Azután kattintson az időjárási megfigyelések és előrejelzések megtekintéséhez.

A térkép megváltoztatása: kattintson a fekete keresztel jelölt zöld gombra ráközelítéshez, a vonallal jelölt zöld gombra távolításhoz, vagy a zöld nyilakra a szomszédos térképek eléréséhez.


METAR-TAF: